Time;durP1;ratioP1;P1;durP2;ratioP2;P2;SDS_P1;SDS_P2;PMS_P1;PMS_P2;Temp;Humidity;BMP_temperature;BMP_pressure;BME280_temperature;BME280_humidity;BME280_pressure;Samples;Min_cycle;Max_cycle;Signal;HPM_P1;HPM_P2
2024/01/01 00:00:44;;;;;;;44.80;19.95;;;;;;;;;;4947186;28;20039;-77
2024/01/01 00:03:09;;;;;;;39.83;19.45;;;;;;;;;;4961936;28;20118;-79
2024/01/01 00:05:36;;;;;;;31.58;15.07;;;;;;;;;;4931221;28;20042;-77
2024/01/01 00:08:05;;;;;;;21.73;10.40;;;;;;;;;;4948923;28;20027;-77
2024/01/01 00:10:31;;;;;;;30.17;14.55;;;;;;;;;;4951676;28;20035;-77
2024/01/01 00:12:57;;;;;;;66.55;28.73;;;;;;;;;;4964900;28;20406;-78
2024/01/01 00:15:23;;;;;;;21.25;11.23;;;;;;;;;;4948158;28;20038;-76
2024/01/01 00:17:48;;;;;;;21.90;10.88;;;;;;;;;;4948255;28;20038;-76
2024/01/01 00:20:14;;;;;;;32.42;14.52;;;;;;;;;;4932559;28;20066;-77
2024/01/01 00:22:41;;;;;;;36.83;18.83;;;;;;;;;;4932796;28;20039;-76
2024/01/01 00:25:07;;;;;;;31.10;14.02;;;;;;;;;;4950377;28;20110;-77
2024/01/01 00:27:34;;;;;;;20.08;9.50;;;;;;;;;;4934950;28;20081;-76
2024/01/01 00:30:01;;;;;;;18.95;8.35;;;;;;;;;;4938755;28;20134;-77
2024/01/01 00:32:26;;;;;;;22.27;7.95;;;;;;;;;;4936378;28;20043;-77
2024/01/01 00:34:52;;;;;;;24.08;10.40;;;;;;;;;;4934857;28;20038;-77
2024/01/01 00:37:18;;;;;;;19.38;9.90;;;;;;;;;;4949136;28;20112;-79
2024/01/01 00:39:44;;;;;;;20.65;8.32;;;;;;;;;;4950515;28;20035;-77
2024/01/01 00:42:10;;;;;;;26.55;10.57;;;;;;;;;;4973729;28;20045;-78
2024/01/01 00:44:37;;;;;;;22.60;8.10;;;;;;;;;;4956926;28;20126;-79
2024/01/01 00:47:03;;;;;;;20.98;7.72;;;;;;;;;;4940729;28;20046;-79
2024/01/01 00:49:30;;;;;;;28.52;9.57;;;;;;;;;;4939070;28;20106;-77
2024/01/01 00:51:55;;;;;;;17.15;7.47;;;;;;;;;;4924049;28;20054;-78
2024/01/01 00:54:24;;;;;;;17.30;7.63;;;;;;;;;;4938673;28;20041;-78
2024/01/01 00:56:54;;;;;;;22.58;11.05;;;;;;;;;;4955452;28;20035;-78
2024/01/01 00:59:22;;;;;;;15.13;8.45;;;;;;;;;;4956759;28;20035;-78
2024/01/01 01:01:48;;;;;;;;;;;;;;;;;;4955779;28;20037;-77
2024/01/01 01:04:14;;;;;;;21.85;10.50;;;;;;;;;;4947759;28;19910;-78
2024/01/01 01:06:43;;;;;;;22.33;10.07;;;;;;;;;;4947349;28;20487;-78
2024/01/01 01:09:08;;;;;;;28.00;11.77;;;;;;;;;;4945610;28;20039;-78
2024/01/01 01:11:35;;;;;;;21.67;10.90;;;;;;;;;;4947715;28;20107;-78
2024/01/01 01:14:02;;;;;;;29.70;12.93;;;;;;;;;;4945392;28;20463;-78
2024/01/01 01:16:28;;;;;;;51.65;23.15;;;;;;;;;;4929847;28;20051;-78
2024/01/01 01:18:54;;;;;;;38.47;17.15;;;;;;;;;;4944300;28;20054;-78
2024/01/01 01:21:20;;;;;;;23.80;11.73;;;;;;;;;;4946040;28;20043;-78
2024/01/01 01:23:46;;;;;;;21.42;9.75;;;;;;;;;;4929111;28;20031;-77
2024/01/01 01:26:12;;;;;;;26.50;10.27;;;;;;;;;;4946188;28;20027;-76
2024/01/01 01:28:38;;;;;;;20.80;10.07;;;;;;;;;;4963551;28;20037;-79
2024/01/01 01:31:04;;;;;;;23.20;10.05;;;;;;;;;;4931654;28;20414;-78
2024/01/01 01:33:30;;;;;;;23.30;10.32;;;;;;;;;;4951916;28;20039;-78
2024/01/01 01:35:56;;;;;;;18.33;9.32;;;;;;;;;;4985404;28;20449;-77
2024/01/01 01:38:23;;;;;;;18.42;10.15;;;;;;;;;;4967963;28;20041;-76
2024/01/01 01:40:48;;;;;;;19.70;9.02;;;;;;;;;;4952255;28;20035;-77
2024/01/01 01:43:21;;;;;;;19.75;8.35;;;;;;;;;;4933296;28;20473;-79
2024/01/01 01:45:47;;;;;;;16.70;8.45;;;;;;;;;;4952593;28;20039;-77
2024/01/01 01:48:14;;;;;;;18.08;8.65;;;;;;;;;;4934204;28;20062;-78
2024/01/01 01:50:40;;;;;;;18.20;8.23;;;;;;;;;;4935019;28;20042;-78
2024/01/01 01:53:05;;;;;;;23.98;8.20;;;;;;;;;;4934757;28;20031;-78
2024/01/01 01:55:31;;;;;;;17.83;8.18;;;;;;;;;;4920044;28;20035;-77
2024/01/01 01:57:57;;;;;;;15.23;7.00;;;;;;;;;;4946724;28;20034;-77
2024/01/01 02:00:23;;;;;;;16.17;6.63;;;;;;;;;;4932912;28;20039;-79
2024/01/01 02:02:49;;;;;;;16.65;6.95;;;;;;;;;;4962712;28;20376;-78
2024/01/01 02:05:17;;;;;;;16.10;6.28;;;;;;;;;;4931635;28;20034;-79
2024/01/01 02:07:45;;;;;;;18.42;7.07;;;;;;;;;;4931598;28;20038;-79
2024/01/01 02:10:11;;;;;;;15.50;6.47;;;;;;;;;;4944929;28;20031;-79
2024/01/01 02:12:37;;;;;;;14.50;6.38;;;;;;;;;;4930766;28;20034;-78
2024/01/01 02:15:05;;;;;;;19.70;6.63;;;;;;;;;;4929403;28;20493;-77
2024/01/01 02:17:30;;;;;;;15.10;5.75;;;;;;;;;;4976534;28;20031;-78
2024/01/01 02:19:56;;;;;;;12.25;5.57;;;;;;;;;;4929332;28;20042;-78
2024/01/01 02:22:23;;;;;;;11.45;4.90;;;;;;;;;;4931424;28;20141;-79
2024/01/01 02:24:48;;;;;;;13.05;5.07;;;;;;;;;;4981049;28;20058;-78
2024/01/01 02:27:14;;;;;;;13.30;5.10;;;;;;;;;;4976942;28;20506;-77
2024/01/01 02:29:40;;;;;;;12.90;5.45;;;;;;;;;;4961592;28;20062;-78
2024/01/01 02:32:05;;;;;;;11.32;5.05;;;;;;;;;;4977806;28;20050;-79
2024/01/01 02:34:31;;;;;;;22.30;5.38;;;;;;;;;;4929927;28;20035;-77
2024/01/01 02:36:57;;;;;;;9.82;3.88;;;;;;;;;;4977539;28;20539;-78
2024/01/01 02:39:23;;;;;;;13.35;4.10;;;;;;;;;;4959829;28;20115;-78
2024/01/01 02:41:48;;;;;;;9.65;3.53;;;;;;;;;;4928605;28;20085;-77
2024/01/01 02:44:14;;;;;;;8.25;3.63;;;;;;;;;;4927567;28;20035;-78
2024/01/01 02:46:40;;;;;;;8.43;4.13;;;;;;;;;;4975393;28;20026;-77
2024/01/01 02:49:06;;;;;;;12.20;4.85;;;;;;;;;;4978087;28;20027;-78
2024/01/01 02:51:31;;;;;;;7.68;2.97;;;;;;;;;;4945743;28;20035;-78
2024/01/01 02:53:58;;;;;;;8.13;3.08;;;;;;;;;;4928813;28;20520;-77
2024/01/01 02:56:28;;;;;;;13.63;3.45;;;;;;;;;;4945542;28;20126;-77
2024/01/01 02:58:54;;;;;;;8.75;2.60;;;;;;;;;;4945202;28;20101;-78
2024/01/01 03:01:20;;;;;;;11.80;2.45;;;;;;;;;;4978843;28;20030;-78
2024/01/01 03:03:46;;;;;;;7.15;2.70;;;;;;;;;;4961285;28;20037;-78
2024/01/01 03:06:12;;;;;;;7.65;2.88;;;;;;;;;;4977024;28;20034;-78
2024/01/01 03:08:38;;;;;;;6.53;2.47;;;;;;;;;;4976717;28;20027;-77
2024/01/01 03:11:04;;;;;;;6.75;2.10;;;;;;;;;;4978093;28;20510;-77
2024/01/01 03:13:30;;;;;;;7.72;2.45;;;;;;;;;;4948941;28;20084;-78
2024/01/01 03:15:55;;;;;;;7.78;2.70;;;;;;;;;;4933083;28;20121;-76
2024/01/01 03:18:21;;;;;;;8.60;2.85;;;;;;;;;;4948712;28;20490;-77
2024/01/01 03:20:47;;;;;;;8.55;2.85;;;;;;;;;;4932764;28;20166;-77
2024/01/01 03:23:13;;;;;;;8.82;2.85;;;;;;;;;;4932811;28;20035;-76
2024/01/01 03:25:38;;;;;;;11.32;2.78;;;;;;;;;;4931949;28;20034;-78
2024/01/01 03:28:06;;;;;;;7.38;2.58;;;;;;;;;;4932994;28;20454;-79
2024/01/01 03:30:35;;;;;;;11.10;2.72;;;;;;;;;;4950003;28;20034;-77
2024/01/01 03:33:02;;;;;;;8.23;2.60;;;;;;;;;;4932753;28;20031;-77
2024/01/01 03:35:31;;;;;;;8.88;2.80;;;;;;;;;;4950703;28;20107;-78
2024/01/01 03:37:57;;;;;;;;;;;;;;;;;;4982139;28;20039;-77
2024/01/01 03:40:22;;;;;;;8.07;2.90;;;;;;;;;;4965703;28;20422;-77
2024/01/01 03:42:48;;;;;;;7.65;3.15;;;;;;;;;;4950442;28;20101;-78
2024/01/01 03:45:15;;;;;;;7.35;3.30;;;;;;;;;;4932888;28;20073;-76
2024/01/01 03:47:44;;;;;;;11.18;3.33;;;;;;;;;;4949147;28;20042;-77
2024/01/01 03:50:14;;;;;;;10.38;3.28;;;;;;;;;;4948245;28;20117;-77
2024/01/01 03:52:40;;;;;;;;;;;;;;;;;;4963515;28;20070;-76
2024/01/01 03:55:06;;;;;;;12.07;2.83;;;;;;;;;;4949153;28;19973;-77
2024/01/01 03:57:33;;;;;;;9.50;4.03;;;;;;;;;;4933687;28;20030;-77
2024/01/01 03:59:58;;;;;;;11.55;3.05;;;;;;;;;;4934079;28;20034;-78
2024/01/01 04:02:24;;;;;;;7.78;3.38;;;;;;;;;;4931194;28;20041;-77
2024/01/01 04:04:51;;;;;;;9.50;4.03;;;;;;;;;;4963936;28;20070;-77
2024/01/01 04:07:17;;;;;;;12.13;3.35;;;;;;;;;;4948540;28;20030;-79
2024/01/01 04:09:43;;;;;;;9.45;3.40;;;;;;;;;;4964911;28;20027;-78
2024/01/01 04:12:10;;;;;;;9.68;3.22;;;;;;;;;;4948747;28;20133;-77
2024/01/01 04:14:38;;;;;;;7.15;3.63;;;;;;;;;;4948911;28;20398;-77
2024/01/01 04:17:05;;;;;;;12.07;3.90;;;;;;;;;;4947937;28;20078;-76
2024/01/01 04:19:30;;;;;;;9.15;3.58;;;;;;;;;;4948044;28;20047;-77
2024/01/01 04:21:56;;;;;;;10.73;3.80;;;;;;;;;;4932102;28;20031;-76
2024/01/01 04:24:22;;;;;;;10.88;3.63;;;;;;;;;;4932205;28;20415;-77
2024/01/01 04:26:48;;;;;;;9.57;4.68;;;;;;;;;;4948558;28;20057;-75
2024/01/01 04:29:17;;;;;;;10.48;3.22;;;;;;;;;;4965628;28;20030;-75
2024/01/01 04:31:45;;;;;;;9.00;3.65;;;;;;;;;;4953811;28;20031;-76
2024/01/01 04:34:20;;;;;;;13.45;3.38;;;;;;;;;;4965484;28;20394;-77
2024/01/01 04:36:47;;;;;;;9.20;3.40;;;;;;;;;;4965238;28;20046;-76
2024/01/01 04:39:12;;;;;;;11.65;3.50;;;;;;;;;;4950014;28;20038;-77
2024/01/01 04:41:38;;;;;;;10.70;3.22;;;;;;;;;;4964672;28;20027;-77
2024/01/01 04:44:05;;;;;;;7.82;3.25;;;;;;;;;;4966219;28;20038;-76
2024/01/01 04:46:31;;;;;;;12.05;3.30;;;;;;;;;;4950283;28;20035;-77
2024/01/01 04:48:57;;;;;;;11.82;3.08;;;;;;;;;;4949745;28;20041;-76
2024/01/01 04:51:23;;;;;;;7.85;2.88;;;;;;;;;;4966020;28;20031;-76
2024/01/01 04:53:49;;;;;;;9.05;3.17;;;;;;;;;;4933230;28;20031;-77
2024/01/01 04:56:16;;;;;;;7.63;3.05;;;;;;;;;;4934563;28;20030;-76
2024/01/01 04:58:42;;;;;;;9.45;3.20;;;;;;;;;;4970139;28;20043;-74
2024/01/01 05:01:08;;;;;;;8.52;3.80;;;;;;;;;;4939062;28;20038;-75
2024/01/01 05:03:35;;;;;;;9.73;2.97;;;;;;;;;;4974570;28;20178;-75
2024/01/01 05:06:01;;;;;;;8.90;3.25;;;;;;;;;;4974832;28;20030;-75
2024/01/01 05:08:27;;;;;;;10.00;2.97;;;;;;;;;;4993687;28;20046;-75
2024/01/01 05:10:54;;;;;;;8.60;3.38;;;;;;;;;;4962109;28;20034;-76
2024/01/01 05:13:20;;;;;;;8.90;2.72;;;;;;;;;;4975494;28;20041;-76
2024/01/01 05:15:46;;;;;;;7.47;2.88;;;;;;;;;;4941287;28;20035;-76
2024/01/01 05:18:12;;;;;;;9.25;3.20;;;;;;;;;;4946123;28;20034;-75
2024/01/01 05:20:38;;;;;;;9.57;3.45;;;;;;;;;;4963638;28;20058;-76
2024/01/01 05:23:03;;;;;;;8.30;3.00;;;;;;;;;;4964087;28;20043;-76
2024/01/01 05:25:29;;;;;;;8.68;2.95;;;;;;;;;;4994785;28;20107;-77
2024/01/01 05:27:55;;;;;;;6.85;3.30;;;;;;;;;;4976323;28;20027;-75
2024/01/01 05:30:22;;;;;;;9.32;3.42;;;;;;;;;;4975989;28;20031;-76
2024/01/01 05:32:47;;;;;;;8.50;3.03;;;;;;;;;;4994579;28;20031;-76
2024/01/01 05:35:13;;;;;;;10.75;3.90;;;;;;;;;;4964268;28;20035;-75
2024/01/01 05:37:39;;;;;;;10.52;3.92;;;;;;;;;;4980959;28;20103;-76
2024/01/01 05:40:05;;;;;;;9.95;3.67;;;;;;;;;;4981459;28;20043;-76
2024/01/01 05:42:31;;;;;;;8.07;3.10;;;;;;;;;;4965117;28;20035;-76
2024/01/01 05:44:57;;;;;;;8.38;3.15;;;;;;;;;;4998383;28;20021;-75
2024/01/01 05:47:24;;;;;;;8.05;3.58;;;;;;;;;;4965654;28;20042;-76
2024/01/01 05:49:50;;;;;;;8.90;4.28;;;;;;;;;;4965404;28;20047;-76
2024/01/01 05:52:21;;;;;;;7.40;3.25;;;;;;;;;;4977781;28;20031;-75
2024/01/01 05:54:48;;;;;;;9.32;3.70;;;;;;;;;;4951167;28;20070;-75
2024/01/01 05:57:14;;;;;;;8.45;3.50;;;;;;;;;;4983889;28;20030;-77
2024/01/01 05:59:40;;;;;;;11.35;3.75;;;;;;;;;;4939853;28;20045;-76
2024/01/01 06:02:08;;;;;;;9.32;2.88;;;;;;;;;;4992562;28;20082;-76
2024/01/01 06:04:36;;;;;;;13.13;3.95;;;;;;;;;;4960318;28;20030;-75
2024/01/01 06:07:02;;;;;;;9.43;3.67;;;;;;;;;;4972591;28;20033;-76
2024/01/01 06:09:29;;;;;;;11.70;3.67;;;;;;;;;;4948730;28;20077;-75
2024/01/01 06:11:55;;;;;;;9.07;3.80;;;;;;;;;;4965537;28;20050;-76
2024/01/01 06:14:21;;;;;;;8.98;3.65;;;;;;;;;;4932571;28;20487;-75
2024/01/01 06:16:47;;;;;;;12.52;5.03;;;;;;;;;;4932023;28;20740;-76
2024/01/01 06:19:13;;;;;;;8.40;3.63;;;;;;;;;;4946991;28;20126;-76
2024/01/01 06:21:39;;;;;;;10.60;3.45;;;;;;;;;;4949379;28;20035;-76
2024/01/01 06:24:08;;;;;;;9.48;3.40;;;;;;;;;;4965288;28;20037;-77
2024/01/01 06:26:34;;;;;;;8.18;3.47;;;;;;;;;;4948921;28;20031;-75
2024/01/01 06:29:01;;;;;;;7.50;3.50;;;;;;;;;;4963508;28;20082;-75
2024/01/01 06:31:27;;;;;;;11.75;3.70;;;;;;;;;;4947470;28;20043;-76
2024/01/01 06:33:53;;;;;;;8.27;3.55;;;;;;;;;;4931005;28;20475;-76
2024/01/01 06:36:27;;;;;;;10.07;3.78;;;;;;;;;;4949390;28;20042;-75
2024/01/01 06:38:52;;;;;;;6.63;3.13;;;;;;;;;;4937092;28;20047;-76
2024/01/01 06:41:18;;;;;;;7.85;3.38;;;;;;;;;;4989420;28;20057;-76
2024/01/01 06:43:43;;;;;;;9.93;3.70;;;;;;;;;;4967987;28;20031;-77
2024/01/01 06:46:10;;;;;;;7.35;3.30;;;;;;;;;;4972031;28;20038;-76
2024/01/01 06:48:37;;;;;;;10.90;3.58;;;;;;;;;;4958449;28;20094;-76
2024/01/01 06:51:08;;;;;;;10.15;3.90;;;;;;;;;;4973925;28;20039;-76
2024/01/01 06:53:33;;;;;;;8.55;3.05;;;;;;;;;;4991889;28;20046;-76
2024/01/01 06:56:00;;;;;;;6.57;2.95;;;;;;;;;;4962148;28;20035;-76
2024/01/01 06:58:25;;;;;;;7.20;3.17;;;;;;;;;;4963093;28;20058;-77
2024/01/01 07:00:51;;;;;;;16.33;4.13;;;;;;;;;;4961102;28;20038;-76
2024/01/01 07:03:16;;;;;;;7.60;3.40;;;;;;;;;;4977760;28;20031;-76
2024/01/01 07:05:42;;;;;;;10.45;3.40;;;;;;;;;;4994702;28;20129;-76
2024/01/01 07:08:08;;;;;;;8.73;4.55;;;;;;;;;;4958706;28;20038;-77
2024/01/01 07:10:36;;;;;;;6.85;3.17;;;;;;;;;;4954438;28;20434;-77
2024/01/01 07:13:01;;;;;;;9.77;2.93;;;;;;;;;;4954230;28;20102;-77
2024/01/01 07:15:27;;;;;;;8.48;3.50;;;;;;;;;;4954132;28;20271;-77
2024/01/01 07:17:52;;;;;;;11.68;4.07;;;;;;;;;;4964520;28;20110;-77
2024/01/01 07:20:18;;;;;;;6.15;3.22;;;;;;;;;;4962502;28;20490;-77
2024/01/01 07:22:43;;;;;;;8.93;3.72;;;;;;;;;;4963864;28;20030;-76
2024/01/01 07:25:09;;;;;;;11.82;3.95;;;;;;;;;;4959963;28;20031;-77
2024/01/01 07:27:35;;;;;;;12.10;3.85;;;;;;;;;;4961021;28;20030;-78
2024/01/01 07:30:03;;;;;;;9.50;4.70;;;;;;;;;;4959555;28;20401;-77
2024/01/01 07:32:30;;;;;;;15.18;4.28;;;;;;;;;;4961716;28;20049;-78
2024/01/01 07:34:56;;;;;;;10.25;3.28;;;;;;;;;;4928897;28;20093;-78
2024/01/01 07:37:21;;;;;;;12.57;3.92;;;;;;;;;;4927933;28;20031;-77
2024/01/01 07:39:47;;;;;;;8.70;3.70;;;;;;;;;;4943348;28;20050;-77
2024/01/01 07:42:15;;;;;;;12.20;3.65;;;;;;;;;;4926975;28;20026;-77
2024/01/01 07:44:41;;;;;;;9.43;3.78;;;;;;;;;;4927323;28;20039;-78
2024/01/01 07:47:08;;;;;;;10.48;3.90;;;;;;;;;;4958750;28;20598;-78
2024/01/01 07:49:33;;;;;;;9.18;3.60;;;;;;;;;;4959222;28;20039;-77
2024/01/01 07:52:02;;;;;;;13.07;3.83;;;;;;;;;;4959690;28;20446;-77
2024/01/01 07:54:28;;;;;;;11.63;3.33;;;;;;;;;;4932817;28;20034;-77
2024/01/01 07:56:53;;;;;;;11.50;3.92;;;;;;;;;;4964277;28;20130;-76
2024/01/01 07:59:19;;;;;;;8.35;3.80;;;;;;;;;;4966866;28;20039;-77
2024/01/01 08:01:45;;;;;;;10.68;3.97;;;;;;;;;;4937364;28;20027;-78
2024/01/01 08:04:11;;;;;;;11.48;3.67;;;;;;;;;;4950358;28;20121;-76
2024/01/01 08:06:36;;;;;;;13.82;4.30;;;;;;;;;;4980304;28;20035;-76
2024/01/01 08:09:02;;;;;;;11.98;4.45;;;;;;;;;;4935170;28;20034;-76
2024/01/01 08:11:28;;;;;;;11.98;3.55;;;;;;;;;;4970234;28;20030;-77
2024/01/01 08:13:53;;;;;;;11.88;3.55;;;;;;;;;;4990904;28;20031;-76
2024/01/01 08:16:19;;;;;;;11.27;3.75;;;;;;;;;;4976884;28;20035;-76
2024/01/01 08:18:45;;;;;;;10.52;4.07;;;;;;;;;;4989259;28;20051;-76
2024/01/01 08:21:11;;;;;;;7.78;3.17;;;;;;;;;;4971770;28;20082;-77
2024/01/01 08:23:38;;;;;;;11.35;3.80;;;;;;;;;;4957006;28;20035;-77
2024/01/01 08:26:04;;;;;;;13.05;3.95;;;;;;;;;;4971204;28;20038;-76
2024/01/01 08:28:32;;;;;;;8.40;3.67;;;;;;;;;;4986129;28;20023;-76
2024/01/01 08:30:58;;;;;;;6.95;3.17;;;;;;;;;;4986427;28;20034;-77
2024/01/01 08:33:24;;;;;;;11.15;3.10;;;;;;;;;;4987858;28;20192;-77
2024/01/01 08:35:53;;;;;;;8.65;3.80;;;;;;;;;;4975114;28;20033;-77
2024/01/01 08:38:22;;;;;;;12.35;4.03;;;;;;;;;;4963369;28;20034;-77
2024/01/01 08:40:47;;;;;;;9.70;3.50;;;;;;;;;;4978091;28;20052;-77
2024/01/01 08:43:13;;;;;;;6.82;3.22;;;;;;;;;;4990368;28;20031;-76
2024/01/01 08:45:39;;;;;;;13.43;3.72;;;;;;;;;;4975328;28;20054;-76
2024/01/01 08:48:05;;;;;;;8.00;3.00;;;;;;;;;;4974951;28;20549;-77
2024/01/01 08:50:31;;;;;;;14.25;3.42;;;;;;;;;;4974610;28;20046;-77
2024/01/01 08:52:56;;;;;;;8.55;3.55;;;;;;;;;;4990492;28;20512;-77
2024/01/01 08:55:22;;;;;;;11.38;3.58;;;;;;;;;;4956345;28;20089;-77
2024/01/01 08:57:48;;;;;;;8.00;3.05;;;;;;;;;;4972337;28;20050;-77
2024/01/01 09:00:16;;;;;;;8.27;3.42;;;;;;;;;;4983268;28;20093;-77
2024/01/01 09:02:42;;;;;;;11.47;3.87;;;;;;;;;;4966827;28;20038;-77
2024/01/01 09:05:08;;;;;;;8.55;3.53;;;;;;;;;;4985145;28;20317;-77
2024/01/01 09:07:33;;;;;;;9.85;3.03;;;;;;;;;;4967918;28;20069;-77
2024/01/01 09:10:01;;;;;;;12.77;4.05;;;;;;;;;;4957056;28;20049;-76
2024/01/01 09:12:30;;;;;;;12.90;3.20;;;;;;;;;;4973122;28;20034;-76
2024/01/01 09:14:56;;;;;;;6.80;2.97;;;;;;;;;;4943074;28;20066;-77
2024/01/01 09:17:22;;;;;;;7.80;3.42;;;;;;;;;;4976777;28;20045;-76
2024/01/01 09:19:52;;;;;;;7.03;3.00;;;;;;;;;;4939820;28;20026;-77
2024/01/01 09:22:18;;;;;;;9.00;3.00;;;;;;;;;;4963906;28;20039;-76
2024/01/01 09:24:44;;;;;;;12.27;3.10;;;;;;;;;;4961352;28;20035;-76
2024/01/01 09:27:10;;;;;;;9.52;2.90;;;;;;;;;;4960998;28;20414;-76
2024/01/01 09:29:35;;;;;;;7.78;3.20;;;;;;;;;;4929978;28;20045;-76
2024/01/01 09:32:02;;;;;;;8.18;3.22;;;;;;;;;;4945433;28;20126;-76
2024/01/01 09:34:28;;;;;;;11.18;3.55;;;;;;;;;;4929456;28;20513;-76
2024/01/01 09:36:53;;;;;;;7.82;3.50;;;;;;;;;;4944868;28;20047;-76
2024/01/01 09:39:19;;;;;;;9.00;3.08;;;;;;;;;;4960699;28;20081;-76
2024/01/01 09:41:45;;;;;;;10.82;3.38;;;;;;;;;;4977582;28;20117;-76
2024/01/01 09:44:11;;;;;;;9.93;3.42;;;;;;;;;;4959961;28;20035;-76
2024/01/01 09:46:37;;;;;;;14.55;3.55;;;;;;;;;;4960987;28;20041;-76
2024/01/01 09:49:03;;;;;;;9.75;3.72;;;;;;;;;;4944984;28;20030;-76
2024/01/01 09:51:29;;;;;;;11.18;2.70;;;;;;;;;;4976385;28;20111;-76
2024/01/01 09:53:54;;;;;;;8.82;3.25;;;;;;;;;;4960457;28;20129;-75
2024/01/01 09:56:21;;;;;;;6.25;3.05;;;;;;;;;;4976377;28;20031;-77
2024/01/01 09:58:47;;;;;;;8.70;2.78;;;;;;;;;;4978222;28;20398;-76
2024/01/01 10:01:15;;;;;;;9.25;3.50;;;;;;;;;;4960275;28;20042;-77
2024/01/01 10:03:40;;;;;;;6.28;2.63;;;;;;;;;;4960314;28;20105;-76
2024/01/01 10:06:07;;;;;;;10.93;2.92;;;;;;;;;;4960328;28;20063;-76
2024/01/01 10:08:34;;;;;;;8.52;3.55;;;;;;;;;;4928905;28;20038;-76
2024/01/01 10:11:14;;;;;;;8.50;2.95;;;;;;;;;;4960856;28;20035;-76
2024/01/01 10:13:40;;;;;;;9.35;2.65;;;;;;;;;;4943581;28;20033;-77
2024/01/01 10:16:07;;;;;;;11.35;2.90;;;;;;;;;;4975839;28;20105;-77
2024/01/01 10:18:32;;;;;;;9.50;3.05;;;;;;;;;;4977776;28;20034;-76
2024/01/01 10:21:18;;;;;;;7.07;2.80;;;;;;;;;;4977727;28;20102;-76
2024/01/01 10:23:44;;;;;;;9.60;2.60;;;;;;;;;;4960154;28;20050;-77
2024/01/01 10:26:10;;;;;;;10.55;3.40;;;;;;;;;;4978472;28;20030;-77
2024/01/01 10:28:35;;;;;;;9.60;2.80;;;;;;;;;;4979610;28;20132;-77
2024/01/01 10:31:01;;;;;;;9.70;3.00;;;;;;;;;;4978823;28;20496;-76
2024/01/01 10:33:29;;;;;;;11.57;2.55;;;;;;;;;;4945597;28;20051;-77
2024/01/01 10:35:57;;;;;;;6.60;2.30;;;;;;;;;;4963971;28;20130;-77
2024/01/01 10:38:24;;;;;;;9.32;2.80;;;;;;;;;;4963350;28;20048;-77
2024/01/01 10:40:50;;;;;;;9.30;2.95;;;;;;;;;;4983162;28;20042;-76
2024/01/01 10:43:18;;;;;;;11.10;2.35;;;;;;;;;;4986361;28;20034;-76
2024/01/01 10:45:44;;;;;;;9.70;2.10;;;;;;;;;;4992443;28;20039;-76
2024/01/01 10:48:11;;;;;;;11.88;3.03;;;;;;;;;;4974849;28;20062;-76
2024/01/01 10:50:40;;;;;;;9.73;2.60;;;;;;;;;;4992169;28;20204;-76
2024/01/01 10:53:29;;;;;;;7.88;2.78;;;;;;;;;;4960424;28;20019;-76
2024/01/01 10:56:00;;;;;;;6.85;2.80;;;;;;;;;;4993544;28;20046;-77
2024/01/01 10:58:38;;;;;;;9.52;2.30;;;;;;;;;;4975175;28;20035;-76
2024/01/01 11:01:04;;;;;;;12.07;2.45;;;;;;;;;;4992003;28;20114;-76
2024/01/01 11:03:34;;;;;;;7.80;2.00;;;;;;;;;;4980795;28;20030;-76
2024/01/01 11:06:21;;;;;;;10.32;2.08;;;;;;;;;;4982244;28;20026;-76
2024/01/01 11:08:47;;;;;;;9.68;2.10;;;;;;;;;;4982695;28;20031;-76
2024/01/01 11:11:22;;;;;;;6.35;1.92;;;;;;;;;;4979612;28;20038;-75
2024/01/01 11:13:57;;;;;;;7.72;1.88;;;;;;;;;;4968021;28;20027;-76
2024/01/01 11:16:23;;;;;;;5.47;1.58;;;;;;;;;;5008948;28;20153;-76
2024/01/01 11:18:50;;;;;;;11.07;2.40;;;;;;;;;;4992200;28;20023;-76
2024/01/01 11:21:32;;;;;;;6.53;2.13;;;;;;;;;;4992323;28;20029;-77
2024/01/01 11:24:05;;;;;;;8.60;2.17;;;;;;;;;;4976751;28;20043;-76
2024/01/01 11:26:35;;;;;;;7.55;1.55;;;;;;;;;;4974863;28;20035;-77
2024/01/01 11:29:07;;;;;;;15.80;2.28;;;;;;;;;;4981799;28;20031;-76
2024/01/01 11:31:34;;;;;;;7.15;2.10;;;;;;;;;;4983533;28;20119;-78
2024/01/01 11:34:04;;;;;;;6.75;1.80;;;;;;;;;;4981160;28;20031;-77
2024/01/01 11:36:33;;;;;;;6.03;1.40;;;;;;;;;;4998423;28;20039;-78
2024/01/01 11:38:59;;;;;;;5.28;1.90;;;;;;;;;;4965726;28;20042;-77
2024/01/01 11:41:28;;;;;;;5.32;1.33;;;;;;;;;;4964680;28;20115;-78
2024/01/01 11:43:54;;;;;;;3.92;1.40;;;;;;;;;;4947017;28;20482;-77
2024/01/01 11:46:23;;;;;;;7.80;1.60;;;;;;;;;;4947238;28;20055;-78
2024/01/01 11:48:56;;;;;;;6.68;1.75;;;;;;;;;;4978067;28;20482;-78
2024/01/01 11:51:21;;;;;;;5.70;1.45;;;;;;;;;;4978011;28;20561;-78
2024/01/01 11:53:47;;;;;;;5.80;1.23;;;;;;;;;;4978370;28;20042;-77
2024/01/01 11:56:13;;;;;;;5.10;1.17;;;;;;;;;;4962650;28;20030;-79
2024/01/01 11:58:42;;;;;;;7.53;1.38;;;;;;;;;;4995871;28;20034;-77
2024/01/01 12:01:08;;;;;;;6.93;1.48;;;;;;;;;;4966578;28;20035;-76
2024/01/01 12:03:34;;;;;;;6.90;1.08;;;;;;;;;;4963461;28;20038;-77
2024/01/01 12:06:03;;;;;;;6.07;1.30;;;;;;;;;;4947383;28;20038;-78
2024/01/01 12:08:29;;;;;;;4.45;1.08;;;;;;;;;;4947009;28;20062;-78
2024/01/01 12:10:58;;;;;;;5.15;1.33;;;;;;;;;;4979137;28;20078;-79
2024/01/01 12:13:27;;;;;;;7.20;1.33;;;;;;;;;;4962397;28;20045;-78
2024/01/01 12:15:53;;;;;;;4.13;1.23;;;;;;;;;;4995305;28;20438;-78
2024/01/01 12:18:19;;;;;;;4.22;1.27;;;;;;;;;;4980125;28;20030;-78
2024/01/01 12:20:45;;;;;;;4.53;1.38;;;;;;;;;;4962642;28;20031;-79
2024/01/01 12:23:12;;;;;;;10.88;1.48;;;;;;;;;;4962986;28;20035;-78
2024/01/01 12:25:37;;;;;;;5.97;1.27;;;;;;;;;;4978554;28;20486;-79
2024/01/01 12:28:05;;;;;;;6.45;1.33;;;;;;;;;;4979391;28;20047;-79
2024/01/01 12:34:22;;;;;;;2.50;0.98;;;;;;;;;;4923513;29;20032;-77
2024/01/01 12:36:54;;;;;;;7.75;1.42;;;;;;;;;;4938961;29;20031;-79
2024/01/01 12:39:20;;;;;;;4.93;1.05;;;;;;;;;;4952324;28;20058;-78
2024/01/01 12:41:46;;;;;;;10.63;1.40;;;;;;;;;;4983648;28;20031;-78
2024/01/01 12:44:13;;;;;;;5.22;0.82;;;;;;;;;;4982846;28;20110;-79
2024/01/01 12:46:39;;;;;;;6.65;1.50;;;;;;;;;;4981127;28;20023;-79
2024/01/01 12:49:08;;;;;;;4.22;0.93;;;;;;;;;;4983177;28;20027;-77
2024/01/01 12:51:35;;;;;;;11.02;1.15;;;;;;;;;;4956599;28;20035;-76
2024/01/01 12:54:02;;;;;;;7.18;1.92;;;;;;;;;;4972125;28;20046;-77
2024/01/01 12:56:28;;;;;;;6.18;1.38;;;;;;;;;;4956827;28;20041;-77
2024/01/01 12:58:54;;;;;;;5.55;1.00;;;;;;;;;;4955347;28;20030;-76
2024/01/01 13:01:21;;;;;;;6.80;1.20;;;;;;;;;;4951410;28;20062;-77
2024/01/01 13:03:48;;;;;;;4.32;1.00;;;;;;;;;;4950150;28;20042;-79
2024/01/01 13:06:17;;;;;;;4.65;1.15;;;;;;;;;;4952052;28;20031;-79
2024/01/01 13:08:47;;;;;;;5.75;1.20;;;;;;;;;;4954676;28;20031;-78
2024/01/01 13:11:13;;;;;;;3.75;0.95;;;;;;;;;;4952643;28;20035;-80
2024/01/01 13:13:39;;;;;;;5.50;1.25;;;;;;;;;;4951526;28;20137;-78
2024/01/01 13:16:05;;;;;;;8.13;1.08;;;;;;;;;;4984650;28;20498;-79
2024/01/01 13:18:32;;;;;;;3.88;1.00;;;;;;;;;;4982777;28;20081;-79
2024/01/01 13:20:58;;;;;;;5.10;1.08;;;;;;;;;;4969041;28;20027;-78
2024/01/01 13:23:23;;;;;;;3.95;0.90;;;;;;;;;;4985694;28;20086;-77
2024/01/01 13:25:49;;;;;;;11.27;1.38;;;;;;;;;;4986253;28;20046;-77
2024/01/01 13:28:21;;;;;;;6.10;1.65;;;;;;;;;;4989688;28;20081;-78
2024/01/01 13:30:48;;;;;;;7.28;0.95;;;;;;;;;;4999233;28;20026;-78
2024/01/01 13:33:13;;;;;;;4.93;1.27;;;;;;;;;;4982779;28;20655;-78
2024/01/01 13:35:42;;;;;;;7.13;1.30;;;;;;;;;;4949479;28;20486;-79
2024/01/01 13:38:08;;;;;;;8.85;1.27;;;;;;;;;;4982803;28;20047;-79
2024/01/01 13:40:34;;;;;;;3.17;1.10;;;;;;;;;;4985005;28;20494;-79
2024/01/01 13:43:00;;;;;;;3.50;1.13;;;;;;;;;;4999322;28;20046;-77
2024/01/01 13:45:25;;;;;;;4.15;1.13;;;;;;;;;;4968784;28;20053;-78
2024/01/01 13:47:51;;;;;;;5.22;1.75;;;;;;;;;;4988311;28;20037;-77
2024/01/01 13:50:18;;;;;;;7.88;1.60;;;;;;;;;;4987186;28;20030;-78
2024/01/01 13:52:44;;;;;;;5.63;1.00;;;;;;;;;;5003742;28;20108;-78
2024/01/01 13:56:16;;;;;;;5.78;1.13;;;;;;;;;;4984670;28;20096;-79
2024/01/01 13:58:46;;;;;;;8.77;1.45;;;;;;;;;;4983804;28;20081;-77
2024/01/01 14:01:13;;;;;;;11.02;1.48;;;;;;;;;;4986157;28;20030;-78
2024/01/01 14:03:40;;;;;;;2.58;0.85;;;;;;;;;;4985419;28;20061;-79
2024/01/01 14:06:16;;;;;;;9.85;1.13;;;;;;;;;;4956163;28;20034;-78
2024/01/01 14:08:42;;;;;;;3.90;0.80;;;;;;;;;;4971101;28;20062;-78
2024/01/01 14:11:08;;;;;;;11.60;1.58;;;;;;;;;;4955132;28;20487;-77
2024/01/01 14:13:45;;;;;;;7.45;1.30;;;;;;;;;;4968891;28;20073;-78
2024/01/01 14:16:11;;;;;;;7.10;0.93;;;;;;;;;;4984032;28;20023;-77
2024/01/01 14:18:41;;;;;;;7.28;1.17;;;;;;;;;;4984839;28;20035;-80
2024/01/01 14:21:10;;;;;;;3.75;1.00;;;;;;;;;;4983181;28;20034;-79
2024/01/01 14:23:45;;;;;;;7.05;1.17;;;;;;;;;;4984376;28;20085;-79
2024/01/01 14:26:11;;;;;;;4.20;0.70;;;;;;;;;;4983964;28;20027;-79
2024/01/01 14:28:36;;;;;;;6.97;1.10;;;;;;;;;;4964753;28;20035;-80
2024/01/01 14:31:20;;;;;;;5.28;0.90;;;;;;;;;;4996168;28;20030;-79
2024/01/01 14:33:46;;;;;;;6.28;1.17;;;;;;;;;;4963925;28;20501;-79
2024/01/01 14:36:18;;;;;;;6.45;1.17;;;;;;;;;;4982547;28;20035;-81
2024/01/01 14:38:45;;;;;;;7.32;1.15;;;;;;;;;;4951004;28;20119;-77
2024/01/01 14:41:11;;;;;;;3.75;0.95;;;;;;;;;;4950202;28;20031;-80